sensor_id;sensor_type;location;lat;lon;timestamp;pressure;altitude;pressure_sealevel;temperature;humidity
55656;BME280;41530;52.382;5.270;2023-09-08T00:02:14;101921.22;;;25.98;47.77
55656;BME280;41530;52.382;5.270;2023-09-08T00:08:21;101916.75;;;25.90;48.09
55656;BME280;41530;52.382;5.270;2023-09-08T00:13:59;101916.44;;;25.85;48.03
55656;BME280;41530;52.382;5.270;2023-09-08T00:20:18;101909.09;;;25.79;48.09
55656;BME280;41530;52.382;5.270;2023-09-08T00:23:29;101913.63;;;25.78;47.81
55656;BME280;41530;52.382;5.270;2023-09-08T00:26:03;101915.84;;;25.75;48.01
55656;BME280;41530;52.382;5.270;2023-09-08T00:28:37;101910.34;;;25.68;48.18
55656;BME280;41530;52.382;5.270;2023-09-08T00:31:08;101912.38;;;25.66;47.87
55656;BME280;41530;52.382;5.270;2023-09-08T00:34:07;101913.22;;;25.58;48.42
55656;BME280;41530;52.382;5.270;2023-09-08T00:37:15;101916.78;;;25.59;48.37
55656;BME280;41530;52.382;5.270;2023-09-08T00:40:03;101911.75;;;25.56;48.45
55656;BME280;41530;52.382;5.270;2023-09-08T00:42:46;101912.94;;;25.53;48.47
55656;BME280;41530;52.382;5.270;2023-09-08T00:45:26;101917.69;;;25.51;48.36
55656;BME280;41530;52.382;5.270;2023-09-08T00:51:20;101913.63;;;25.55;48.59
55656;BME280;41530;52.382;5.270;2023-09-08T00:54:04;101907.91;;;25.50;48.61
55656;BME280;41530;52.382;5.270;2023-09-08T00:56:50;101920.88;;;25.55;48.77
55656;BME280;41530;52.382;5.270;2023-09-08T00:59:35;101926.53;;;25.60;49.15
55656;BME280;41530;52.382;5.270;2023-09-08T01:02:02;101920.81;;;25.63;48.51
55656;BME280;41530;52.382;5.270;2023-09-08T01:04:43;101923.00;;;25.60;48.50
55656;BME280;41530;52.382;5.270;2023-09-08T01:07:20;101919.16;;;25.62;48.32
55656;BME280;41530;52.382;5.270;2023-09-08T01:09:51;101924.00;;;25.58;48.43
55656;BME280;41530;52.382;5.270;2023-09-08T01:12:25;101912.59;;;25.56;48.16
55656;BME280;41530;52.382;5.270;2023-09-08T01:14:53;101905.22;;;25.50;47.97
55656;BME280;41530;52.382;5.270;2023-09-08T01:17:29;101912.63;;;25.48;47.95
55656;BME280;41530;52.382;5.270;2023-09-08T01:20:04;101915.41;;;25.40;48.55
55656;BME280;41530;52.382;5.270;2023-09-08T01:25:46;101917.09;;;25.33;48.35
55656;BME280;41530;52.382;5.270;2023-09-08T01:28:32;101906.88;;;25.29;48.37
55656;BME280;41530;52.382;5.270;2023-09-08T01:31:06;101908.91;;;25.27;48.65
55656;BME280;41530;52.382;5.270;2023-09-08T01:33:39;101915.13;;;25.27;48.64
55656;BME280;41530;52.382;5.270;2023-09-08T01:36:33;101916.66;;;25.30;48.77
55656;BME280;41530;52.382;5.270;2023-09-08T01:39:15;101908.06;;;25.26;48.38
55656;BME280;41530;52.382;5.270;2023-09-08T01:41:44;101906.22;;;25.27;48.89
55656;BME280;41530;52.382;5.270;2023-09-08T01:44:28;101912.06;;;25.30;48.76
55656;BME280;41530;52.382;5.270;2023-09-08T01:47:04;101905.88;;;25.30;48.65
55656;BME280;41530;52.382;5.270;2023-09-08T01:49:51;101907.34;;;25.32;48.48
55656;BME280;41530;52.382;5.270;2023-09-08T01:52:45;101916.28;;;25.33;48.60
55656;BME280;41530;52.382;5.270;2023-09-08T01:55:14;101920.13;;;25.38;48.75
55656;BME280;41530;52.382;5.270;2023-09-08T02:00:42;101913.72;;;25.39;48.64
55656;BME280;41530;52.382;5.270;2023-09-08T02:03:29;101915.75;;;25.37;48.63
55656;BME280;41530;52.382;5.270;2023-09-08T02:06:04;101911.38;;;25.36;48.41
55656;BME280;41530;52.382;5.270;2023-09-08T02:08:50;101909.38;;;25.30;48.55
55656;BME280;41530;52.382;5.270;2023-09-08T02:11:30;101916.44;;;25.31;48.71
55656;BME280;41530;52.382;5.270;2023-09-08T02:14:06;101903.88;;;25.24;48.47
55656;BME280;41530;52.382;5.270;2023-09-08T02:17:05;101902.09;;;25.16;48.86
55656;BME280;41530;52.382;5.270;2023-09-08T02:19:39;101898.00;;;25.20;48.43
55656;BME280;41530;52.382;5.270;2023-09-08T02:22:57;101900.41;;;25.15;48.68
55656;BME280;41530;52.382;5.270;2023-09-08T02:25:33;101903.09;;;25.15;48.63
55656;BME280;41530;52.382;5.270;2023-09-08T02:28:11;101906.41;;;25.17;48.64
55656;BME280;41530;52.382;5.270;2023-09-08T02:30:56;101905.41;;;25.18;48.94
55656;BME280;41530;52.382;5.270;2023-09-08T02:33:38;101901.88;;;25.17;48.87
55656;BME280;41530;52.382;5.270;2023-09-08T02:36:41;101903.09;;;25.15;48.73
55656;BME280;41530;52.382;5.270;2023-09-08T02:39:26;101904.56;;;25.17;48.63
55656;BME280;41530;52.382;5.270;2023-09-08T02:41:58;101906.97;;;25.12;49.08
55656;BME280;41530;52.382;5.270;2023-09-08T02:44:32;101903.78;;;25.09;48.82
55656;BME280;41530;52.382;5.270;2023-09-08T02:47:15;101896.72;;;25.08;48.37
55656;BME280;41530;52.382;5.270;2023-09-08T02:49:49;101897.91;;;25.05;48.71
55656;BME280;41530;52.382;5.270;2023-09-08T02:52:20;101900.13;;;25.02;48.77
55656;BME280;41530;52.382;5.270;2023-09-08T02:55:15;101901.31;;;24.99;49.14
55656;BME280;41530;52.382;5.270;2023-09-08T02:57:49;101899.81;;;24.97;48.84
55656;BME280;41530;52.382;5.270;2023-09-08T03:00:46;101896.75;;;24.92;48.72
55656;BME280;41530;52.382;5.270;2023-09-08T03:03:58;101900.34;;;24.84;48.91
55656;BME280;41530;52.382;5.270;2023-09-08T03:06:31;101889.25;;;24.79;48.96
55656;BME280;41530;52.382;5.270;2023-09-08T03:09:25;101897.31;;;24.79;48.59
55656;BME280;41530;52.382;5.270;2023-09-08T03:12:20;101896.19;;;24.73;49.05
55656;BME280;41530;52.382;5.270;2023-09-08T03:14:54;101895.69;;;24.70;49.10
55656;BME280;41530;52.382;5.270;2023-09-08T03:17:48;101894.16;;;24.67;48.99
55656;BME280;41530;52.382;5.270;2023-09-08T03:20:44;101897.03;;;24.66;49.14
55656;BME280;41530;52.382;5.270;2023-09-08T03:23:35;101888.66;;;24.61;49.56
55656;BME280;41530;52.382;5.270;2023-09-08T03:26:23;101886.97;;;24.60;49.47
55656;BME280;41530;52.382;5.270;2023-09-08T03:29:03;101885.47;;;24.57;49.60
55656;BME280;41530;52.382;5.270;2023-09-08T03:31:39;101887.81;;;24.60;49.33
55656;BME280;41530;52.382;5.270;2023-09-08T03:34:38;101883.13;;;24.54;49.39
55656;BME280;41530;52.382;5.270;2023-09-08T03:40:28;101873.38;;;24.53;49.87
55656;BME280;41530;52.382;5.270;2023-09-08T03:43:11;101879.25;;;24.57;49.83
55656;BME280;41530;52.382;5.270;2023-09-08T03:48:44;101870.66;;;24.61;49.56
55656;BME280;41530;52.382;5.270;2023-09-08T03:51:33;101874.66;;;24.65;49.36
55656;BME280;41530;52.382;5.270;2023-09-08T03:54:25;101875.03;;;24.62;49.52
55656;BME280;41530;52.382;5.270;2023-09-08T03:56:55;101870.50;;;24.63;49.53
55656;BME280;41530;52.382;5.270;2023-09-08T03:59:42;101872.97;;;24.64;49.39
55656;BME280;41530;52.382;5.270;2023-09-08T04:02:23;101880.03;;;24.65;49.62
55656;BME280;41530;52.382;5.270;2023-09-08T04:04:58;101878.06;;;24.59;49.39
55656;BME280;41530;52.382;5.270;2023-09-08T04:07:32;101876.91;;;24.54;50.04
55656;BME280;41530;52.382;5.270;2023-09-08T04:10:18;101877.91;;;24.52;49.49
55656;BME280;41530;52.382;5.270;2023-09-08T04:13:02;101877.78;;;24.46;49.52
55656;BME280;41530;52.382;5.270;2023-09-08T04:15:51;101878.94;;;24.43;49.66
55656;BME280;41530;52.382;5.270;2023-09-08T04:18:39;101879.47;;;24.39;49.50
55656;BME280;41530;52.382;5.270;2023-09-08T04:21:21;101871.88;;;24.42;49.48
55656;BME280;41530;52.382;5.270;2023-09-08T04:24:05;101866.84;;;24.39;50.01
55656;BME280;41530;52.382;5.270;2023-09-08T04:26:43;101867.00;;;24.38;49.63
55656;BME280;41530;52.382;5.270;2023-09-08T04:29:22;101871.75;;;24.36;49.62
55656;BME280;41530;52.382;5.270;2023-09-08T04:32:11;101877.63;;;24.31;49.77
55656;BME280;41530;52.382;5.270;2023-09-08T04:34:50;101870.56;;;24.30;49.60
55656;BME280;41530;52.382;5.270;2023-09-08T04:37:22;101873.78;;;24.26;49.58
55656;BME280;41530;52.382;5.270;2023-09-08T04:39:53;101871.25;;;24.24;49.86
55656;BME280;41530;52.382;5.270;2023-09-08T04:42:33;101872.94;;;24.25;49.75
55656;BME280;41530;52.382;5.270;2023-09-08T04:45:12;101872.09;;;24.25;49.59
55656;BME280;41530;52.382;5.270;2023-09-08T04:47:45;101872.94;;;24.17;50.14
55656;BME280;41530;52.382;5.270;2023-09-08T04:50:37;101868.75;;;24.23;49.97
55656;BME280;41530;52.382;5.270;2023-09-08T04:53:10;101869.41;;;24.25;49.86
55656;BME280;41530;52.382;5.270;2023-09-08T04:55:43;101874.13;;;24.23;50.04
55656;BME280;41530;52.382;5.270;2023-09-08T04:58:15;101873.09;;;24.24;49.91
55656;BME280;41530;52.382;5.270;2023-09-08T05:01:03;101873.59;;;24.19;49.94
55656;BME280;41530;52.382;5.270;2023-09-08T05:03:48;101882.84;;;24.25;50.01
55656;BME280;41530;52.382;5.270;2023-09-08T05:06:27;101873.94;;;24.24;50.10
55656;BME280;41530;52.382;5.270;2023-09-08T05:08:59;101878.13;;;24.27;50.13
55656;BME280;41530;52.382;5.270;2023-09-08T05:11:32;101875.28;;;24.28;50.10
55656;BME280;41530;52.382;5.270;2023-09-08T05:17:12;101877.47;;;24.25;49.84
55656;BME280;41530;52.382;5.270;2023-09-08T05:20:00;101878.47;;;24.24;49.69
55656;BME280;41530;52.382;5.270;2023-09-08T05:22:43;101877.81;;;24.22;49.83
55656;BME280;41530;52.382;5.270;2023-09-08T05:25:32;101876.13;;;24.21;49.59
55656;BME280;41530;52.382;5.270;2023-09-08T05:28:23;101875.63;;;24.17;50.09
55656;BME280;41530;52.382;5.270;2023-09-08T05:31:09;101877.81;;;24.13;50.13
55656;BME280;41530;52.382;5.270;2023-09-08T05:33:50;101877.47;;;24.16;50.02
55656;BME280;41530;52.382;5.270;2023-09-08T05:36:30;101872.44;;;24.22;50.26
55656;BME280;41530;52.382;5.270;2023-09-08T05:39:29;101870.25;;;24.33;50.80
55656;BME280;41530;52.382;5.270;2023-09-08T05:42:09;101881.63;;;24.43;50.50
55656;BME280;41530;52.382;5.270;2023-09-08T05:44:55;101882.44;;;24.52;50.13
55656;BME280;41530;52.382;5.270;2023-09-08T05:47:42;101872.50;;;24.61;49.74
55656;BME280;41530;52.382;5.270;2023-09-08T05:50:24;101878.88;;;24.68;49.42
55656;BME280;41530;52.382;5.270;2023-09-08T05:53:24;101888.94;;;24.74;49.41
55656;BME280;41530;52.382;5.270;2023-09-08T05:56:11;101891.94;;;24.79;49.00
55656;BME280;41530;52.382;5.270;2023-09-08T06:15:22;101899.91;;;25.11;48.25
55656;BME280;41530;52.382;5.270;2023-09-08T06:17:58;101909.13;;;25.17;48.27
55656;BME280;41530;52.382;5.270;2023-09-08T06:20:30;101914.66;;;25.24;48.33
55656;BME280;41530;52.382;5.270;2023-09-08T06:23:19;101910.03;;;25.32;48.46
55656;BME280;41530;52.382;5.270;2023-09-08T06:29:43;101908.75;;;25.51;48.14
55656;BME280;41530;52.382;5.270;2023-09-08T06:32:47;101910.53;;;25.58;48.10
55656;BME280;41530;52.382;5.270;2023-09-08T06:36:03;101908.69;;;25.67;47.78
55656;BME280;41530;52.382;5.270;2023-09-08T06:42:28;101909.38;;;25.84;47.52
55656;BME280;41530;52.382;5.270;2023-09-08T06:45:01;101905.13;;;25.89;47.69
55656;BME280;41530;52.382;5.270;2023-09-08T06:47:52;101916.88;;;25.97;47.39
55656;BME280;41530;52.382;5.270;2023-09-08T06:50:55;101918.47;;;26.06;47.18
55656;BME280;41530;52.382;5.270;2023-09-08T06:53:38;101918.56;;;26.12;47.29
55656;BME280;41530;52.382;5.270;2023-09-08T06:56:20;101911.44;;;26.19;46.94
55656;BME280;41530;52.382;5.270;2023-09-08T06:58:52;101918.75;;;26.25;47.09
55656;BME280;41530;52.382;5.270;2023-09-08T07:01:25;101922.47;;;26.33;47.07
55656;BME280;41530;52.382;5.270;2023-09-08T07:04:11;101916.31;;;26.39;46.74
55656;BME280;41530;52.382;5.270;2023-09-08T07:06:51;101916.59;;;26.44;46.69
55656;BME280;41530;52.382;5.270;2023-09-08T07:09:31;101913.19;;;26.50;46.74
55656;BME280;41530;52.382;5.270;2023-09-08T07:12:04;101922.38;;;26.55;46.64
55656;BME280;41530;52.382;5.270;2023-09-08T07:14:41;101928.91;;;26.61;46.58
55656;BME280;41530;52.382;5.270;2023-09-08T07:17:07;101918.09;;;26.61;46.52
55656;BME280;41530;52.382;5.270;2023-09-08T07:19:34;101906.38;;;26.69;46.20
55656;BME280;41530;52.382;5.270;2023-09-08T07:22:00;101913.91;;;26.73;46.18
55656;BME280;41530;52.382;5.270;2023-09-08T07:24:27;101910.84;;;26.76;46.46
55656;BME280;41530;52.382;5.270;2023-09-08T07:26:53;101925.63;;;26.80;46.43
55656;BME280;41530;52.382;5.270;2023-09-08T07:29:20;101920.88;;;26.82;46.16
55656;BME280;41530;52.382;5.270;2023-09-08T07:31:46;101928.25;;;26.88;46.59
55656;BME280;41530;52.382;5.270;2023-09-08T07:34:13;101923.28;;;26.92;46.13
55656;BME280;41530;52.382;5.270;2023-09-08T07:36:39;101917.53;;;26.95;46.35
55656;BME280;41530;52.382;5.270;2023-09-08T07:39:06;101929.47;;;27.01;46.02
55656;BME280;41530;52.382;5.270;2023-09-08T07:41:32;101925.34;;;27.05;46.11
55656;BME280;41530;52.382;5.270;2023-09-08T07:43:59;101924.97;;;27.08;46.01
55656;BME280;41530;52.382;5.270;2023-09-08T07:46:26;101916.50;;;27.11;46.00
55656;BME280;41530;52.382;5.270;2023-09-08T07:48:52;101915.94;;;27.15;46.26
55656;BME280;41530;52.382;5.270;2023-09-08T07:51:19;101905.13;;;27.15;46.01
55656;BME280;41530;52.382;5.270;2023-09-08T07:53:45;101920.38;;;27.23;46.30
55656;BME280;41530;52.382;5.270;2023-09-08T07:56:12;101917.31;;;27.26;46.04
55656;BME280;41530;52.382;5.270;2023-09-08T07:58:38;101917.13;;;27.27;46.13
55656;BME280;41530;52.382;5.270;2023-09-08T08:01:06;101912.97;;;27.31;46.27
55656;BME280;41530;52.382;5.270;2023-09-08T08:03:33;101910.38;;;27.38;46.24
55656;BME280;41530;52.382;5.270;2023-09-08T08:06:02;101908.13;;;27.42;46.14
55656;BME280;41530;52.382;5.270;2023-09-08T08:08:28;101906.69;;;27.46;45.86
55656;BME280;41530;52.382;5.270;2023-09-08T08:10:55;101898.22;;;27.49;46.09
55656;BME280;41530;52.382;5.270;2023-09-08T08:13:22;101904.91;;;27.53;45.88
55656;BME280;41530;52.382;5.270;2023-09-08T08:15:48;101895.13;;;27.52;46.02
55656;BME280;41530;52.382;5.270;2023-09-08T08:18:16;101900.25;;;27.61;45.91
55656;BME280;41530;52.382;5.270;2023-09-08T08:20:43;101903.22;;;27.66;46.00
55656;BME280;41530;52.382;5.270;2023-09-08T08:23:10;101909.25;;;27.69;45.96
55656;BME280;41530;52.382;5.270;2023-09-08T08:25:36;101911.19;;;27.75;46.05
55656;BME280;41530;52.382;5.270;2023-09-08T08:28:03;101908.09;;;27.78;45.79
55656;BME280;41530;52.382;5.270;2023-09-08T08:30:29;101909.38;;;27.82;45.93
55656;BME280;41530;52.382;5.270;2023-09-08T08:32:56;101902.53;;;27.86;46.01
55656;BME280;41530;52.382;5.270;2023-09-08T08:35:23;101900.28;;;27.89;45.75
55656;BME280;41530;52.382;5.270;2023-09-08T08:37:49;101899.72;;;27.94;46.00
55656;BME280;41530;52.382;5.270;2023-09-08T08:40:16;101899.09;;;27.98;45.86
55656;BME280;41530;52.382;5.270;2023-09-08T08:42:42;101896.84;;;28.02;45.72
55656;BME280;41530;52.382;5.270;2023-09-08T08:45:10;101899.16;;;28.05;45.69
55656;BME280;41530;52.382;5.270;2023-09-08T08:47:38;101894.81;;;28.11;46.18
55656;BME280;41530;52.382;5.270;2023-09-08T08:50:06;101900.69;;;28.14;45.75
55656;BME280;41530;52.382;5.270;2023-09-08T08:52:36;101900.97;;;28.19;45.79
55656;BME280;41530;52.382;5.270;2023-09-08T08:55:04;101906.84;;;28.23;45.91
55656;BME280;41530;52.382;5.270;2023-09-08T08:57:31;101905.59;;;28.25;46.05
55656;BME280;41530;52.382;5.270;2023-09-08T08:59:58;101908.94;;;28.27;46.11
55656;BME280;41530;52.382;5.270;2023-09-08T09:02:25;101910.22;;;28.31;46.06
55656;BME280;41530;52.382;5.270;2023-09-08T09:04:54;101904.41;;;28.34;45.88
55656;BME280;41530;52.382;5.270;2023-09-08T09:07:20;101905.88;;;28.37;45.60
55656;BME280;41530;52.382;5.270;2023-09-08T09:09:47;101906.31;;;28.41;46.08
55656;BME280;41530;52.382;5.270;2023-09-08T09:12:14;101909.47;;;28.44;45.70
55656;BME280;41530;52.382;5.270;2023-09-08T09:14:44;101905.72;;;28.45;46.11
55656;BME280;41530;52.382;5.270;2023-09-08T09:17:12;101908.66;;;28.50;46.19
55656;BME280;41530;52.382;5.270;2023-09-08T09:19:39;101907.44;;;28.53;45.87
55656;BME280;41530;52.382;5.270;2023-09-08T09:22:06;101902.47;;;28.56;45.92
55656;BME280;41530;52.382;5.270;2023-09-08T09:24:33;101906.66;;;28.59;46.00
55656;BME280;41530;52.382;5.270;2023-09-08T09:27:00;101914.16;;;28.63;46.08
55656;BME280;41530;52.382;5.270;2023-09-08T09:29:27;101912.91;;;28.66;45.58
55656;BME280;41530;52.382;5.270;2023-09-08T09:32:02;101915.22;;;28.69;45.76
55656;BME280;41530;52.382;5.270;2023-09-08T09:34:29;101915.69;;;28.72;45.63
55656;BME280;41530;52.382;5.270;2023-09-08T09:36:56;101915.28;;;28.76;45.88
55656;BME280;41530;52.382;5.270;2023-09-08T09:39:23;101911.16;;;28.80;45.64
55656;BME280;41530;52.382;5.270;2023-09-08T09:41:54;101907.41;;;28.81;45.56
55656;BME280;41530;52.382;5.270;2023-09-08T09:44:21;101905.13;;;28.84;45.63
55656;BME280;41530;52.382;5.270;2023-09-08T09:46:47;101906.41;;;28.88;45.50
55656;BME280;41530;52.382;5.270;2023-09-08T09:49:15;101900.75;;;28.90;45.50
55656;BME280;41530;52.382;5.270;2023-09-08T09:51:44;101898.69;;;28.92;45.43
55656;BME280;41530;52.382;5.270;2023-09-08T09:54:11;101903.91;;;28.93;45.42
55656;BME280;41530;52.382;5.270;2023-09-08T09:56:38;101906.03;;;28.98;45.23
55656;BME280;41530;52.382;5.270;2023-09-08T09:59:08;101896.03;;;28.98;45.35
55656;BME280;41530;52.382;5.270;2023-09-08T10:01:35;101900.22;;;29.01;45.56
55656;BME280;41530;52.382;5.270;2023-09-08T10:04:03;101894.38;;;29.04;45.40
55656;BME280;41530;52.382;5.270;2023-09-08T10:06:34;101901.47;;;29.05;45.23
55656;BME280;41530;52.382;5.270;2023-09-08T10:09:01;101892.09;;;29.07;45.48
55656;BME280;41530;52.382;5.270;2023-09-08T10:11:49;101900.84;;;29.10;45.15
55656;BME280;41530;52.382;5.270;2023-09-08T10:14:16;101899.81;;;29.11;45.31
55656;BME280;41530;52.382;5.270;2023-09-08T10:16:44;101896.72;;;29.14;45.14
55656;BME280;41530;52.382;5.270;2023-09-08T10:19:16;101898.38;;;29.15;45.30
55656;BME280;41530;52.382;5.270;2023-09-08T10:21:45;101891.69;;;29.17;45.38
55656;BME280;41530;52.382;5.270;2023-09-08T10:24:15;101887.75;;;29.20;45.10
55656;BME280;41530;52.382;5.270;2023-09-08T10:26:47;101896.50;;;29.22;45.20
55656;BME280;41530;52.382;5.270;2023-09-08T10:29:18;101885.47;;;29.23;45.08
55656;BME280;41530;52.382;5.270;2023-09-08T10:31:45;101896.13;;;29.25;45.12
55656;BME280;41530;52.382;5.270;2023-09-08T10:34:12;101888.63;;;29.27;45.21
55656;BME280;41530;52.382;5.270;2023-09-08T10:36:39;101892.16;;;29.27;45.26
55656;BME280;41530;52.382;5.270;2023-09-08T10:39:27;101894.03;;;29.27;45.01
55656;BME280;41530;52.382;5.270;2023-09-08T10:42:19;101891.97;;;29.29;45.00
55656;BME280;41530;52.382;5.270;2023-09-08T10:44:40;101883.41;;;29.32;45.34
55656;BME280;41530;52.382;5.270;2023-09-08T10:47:06;101895.91;;;29.33;45.38
55656;BME280;41530;52.382;5.270;2023-09-08T10:49:36;101889.44;;;29.34;45.54
55656;BME280;41530;52.382;5.270;2023-09-08T10:52:05;101890.50;;;29.33;45.53
55656;BME280;41530;52.382;5.270;2023-09-08T10:54:43;101889.66;;;29.32;45.33
55656;BME280;41530;52.382;5.270;2023-09-08T10:57:13;101884.22;;;29.32;45.36
55656;BME280;41530;52.382;5.270;2023-09-08T10:59:40;101888.63;;;29.33;45.71
55656;BME280;41530;52.382;5.270;2023-09-08T11:02:06;101888.63;;;29.33;45.48
55656;BME280;41530;52.382;5.270;2023-09-08T11:04:33;101890.50;;;29.33;45.36
55656;BME280;41530;52.382;5.270;2023-09-08T11:07:02;101888.63;;;29.33;45.82
55656;BME280;41530;52.382;5.270;2023-09-08T11:09:28;101891.13;;;29.35;45.69
55656;BME280;41530;52.382;5.270;2023-09-08T11:11:55;101886.75;;;29.34;45.80
55656;BME280;41530;52.382;5.270;2023-09-08T11:14:21;101884.03;;;29.34;45.57
55656;BME280;41530;52.382;5.270;2023-09-08T11:16:48;101883.19;;;29.33;45.53
55656;BME280;41530;52.382;5.270;2023-09-08T11:19:15;101891.13;;;29.35;45.79
55656;BME280;41530;52.382;5.270;2023-09-08T11:21:42;101893.84;;;29.35;45.58
55656;BME280;41530;52.382;5.270;2023-09-08T11:24:09;101888.41;;;29.35;45.60
55656;BME280;41530;52.382;5.270;2023-09-08T11:26:37;101884.88;;;29.34;45.93
55656;BME280;41530;52.382;5.270;2023-09-08T11:29:04;101886.53;;;29.35;45.70
55656;BME280;41530;52.382;5.270;2023-09-08T11:31:31;101889.25;;;29.35;45.87
55656;BME280;41530;52.382;5.270;2023-09-08T11:33:58;101894.47;;;29.37;45.79
55656;BME280;41530;52.382;5.270;2023-09-08T11:36:26;101891.75;;;29.37;45.97
55656;BME280;41530;52.382;5.270;2023-09-08T11:38:53;101887.38;;;29.36;46.19
55656;BME280;41530;52.382;5.270;2023-09-08T11:41:19;101885.34;;;29.38;46.14
55656;BME280;41530;52.382;5.270;2023-09-08T11:43:49;101882.63;;;29.38;46.04
55656;BME280;41530;52.382;5.270;2023-09-08T11:46:16;101887.38;;;29.36;46.31
55656;BME280;41530;52.382;5.270;2023-09-08T11:48:43;101887.19;;;29.37;46.32
55656;BME280;41530;52.382;5.270;2023-09-08T11:51:10;101888.88;;;29.38;46.42
55656;BME280;41530;52.382;5.270;2023-09-08T11:53:36;101887.00;;;29.39;46.35
55656;BME280;41530;52.382;5.270;2023-09-08T11:56:03;101891.38;;;29.40;46.40
55656;BME280;41530;52.382;5.270;2023-09-08T11:58:30;101889.31;;;29.42;46.27
55656;BME280;41530;52.382;5.270;2023-09-08T12:00:57;101890.34;;;29.41;46.35
55656;BME280;41530;52.382;5.270;2023-09-08T12:03:24;101882.81;;;29.43;46.33
55656;BME280;41530;52.382;5.270;2023-09-08T12:05:51;101888.25;;;29.43;46.38
55656;BME280;41530;52.382;5.270;2023-09-08T12:08:18;101886.38;;;29.43;46.31
55656;BME280;41530;52.382;5.270;2023-09-08T12:10:45;101879.31;;;29.42;46.08
55656;BME280;41530;52.382;5.270;2023-09-08T12:13:11;101879.31;;;29.42;46.23
55656;BME280;41530;52.382;5.270;2023-09-08T12:15:40;101877.63;;;29.41;46.29
55656;BME280;41530;52.382;5.270;2023-09-08T12:18:08;101879.31;;;29.42;46.37
55656;BME280;41530;52.382;5.270;2023-09-08T12:20:35;101879.31;;;29.42;46.40
55656;BME280;41530;52.382;5.270;2023-09-08T12:23:03;101880.94;;;29.43;46.35
55656;BME280;41530;52.382;5.270;2023-09-08T12:25:30;101881.78;;;29.44;46.60
55656;BME280;41530;52.382;5.270;2023-09-08T12:28:03;101874.47;;;29.45;46.58
55656;BME280;41530;52.382;5.270;2023-09-08T12:30:31;101875.31;;;29.45;46.61
55656;BME280;41530;52.382;5.270;2023-09-08T12:33:00;101871.56;;;29.46;46.80
55656;BME280;41530;52.382;5.270;2023-09-08T12:35:27;101877.63;;;29.48;46.75
55656;BME280;41530;52.382;5.270;2023-09-08T12:38:04;101869.50;;;29.48;46.56
55656;BME280;41530;52.382;5.270;2023-09-08T12:40:35;101865.94;;;29.48;46.72
55656;BME280;41530;52.382;5.270;2023-09-08T12:43:02;101869.28;;;29.50;46.62
55656;BME280;41530;52.382;5.270;2023-09-08T12:45:48;101869.09;;;29.51;46.73
55656;BME280;41530;52.382;5.270;2023-09-08T12:48:15;101856.38;;;29.52;46.69
55656;BME280;41530;52.382;5.270;2023-09-08T12:50:41;101864.50;;;29.52;46.69
55656;BME280;41530;52.382;5.270;2023-09-08T12:53:08;101863.25;;;29.54;46.61
55656;BME280;41530;52.382;5.270;2023-09-08T12:55:35;101862.41;;;29.54;46.82
55656;BME280;41530;52.382;5.270;2023-09-08T12:58:01;101863.25;;;29.54;46.72
55656;BME280;41530;52.382;5.270;2023-09-08T13:00:28;101854.91;;;29.56;46.71
55656;BME280;41530;52.382;5.270;2023-09-08T13:02:55;101851.97;;;29.57;46.80
55656;BME280;41530;52.382;5.270;2023-09-08T13:05:22;101859.06;;;29.58;46.78
55656;BME280;41530;52.382;5.270;2023-09-08T13:07:48;101854.28;;;29.60;46.92
55656;BME280;41530;52.382;5.270;2023-09-08T13:10:15;101853.22;;;29.61;46.88
55656;BME280;41530;52.382;5.270;2023-09-08T13:12:41;101854.06;;;29.62;46.95
55656;BME280;41530;52.382;5.270;2023-09-08T13:15:08;101847.41;;;29.64;47.04
55656;BME280;41530;52.382;5.270;2023-09-08T13:17:35;101853.66;;;29.65;46.84
55656;BME280;41530;52.382;5.270;2023-09-08T13:20:01;101847.41;;;29.64;47.00
55656;BME280;41530;52.382;5.270;2023-09-08T13:22:29;101848.88;;;29.67;46.83
55656;BME280;41530;52.382;5.270;2023-09-08T13:24:56;101840.72;;;29.67;46.90
55656;BME280;41530;52.382;5.270;2023-09-08T13:27:22;101847.63;;;29.69;47.07
55656;BME280;41530;52.382;5.270;2023-09-08T13:29:49;101848.41;;;29.70;47.11
55656;BME280;41530;52.382;5.270;2023-09-08T13:32:16;101840.91;;;29.72;47.18
55656;BME280;41530;52.382;5.270;2023-09-08T13:34:43;101839.88;;;29.73;47.14
55656;BME280;41530;52.382;5.270;2023-09-08T13:37:10;101838.00;;;29.73;47.04
55656;BME280;41530;52.382;5.270;2023-09-08T13:39:36;101839.66;;;29.74;47.20
55656;BME280;41530;52.382;5.270;2023-09-08T13:42:03;101830.50;;;29.75;47.36
55656;BME280;41530;52.382;5.270;2023-09-08T13:44:30;101833.00;;;29.77;47.53
55656;BME280;41530;52.382;5.270;2023-09-08T13:46:57;101835.50;;;29.78;47.18
55656;BME280;41530;52.382;5.270;2023-09-08T13:49:23;101835.31;;;29.80;47.54
55656;BME280;41530;52.382;5.270;2023-09-08T13:51:52;101830.72;;;29.81;47.39
55656;BME280;41530;52.382;5.270;2023-09-08T13:54:22;101829.44;;;29.83;47.28
55656;BME280;41530;52.382;5.270;2023-09-08T13:56:57;101830.25;;;29.84;47.41
55656;BME280;41530;52.382;5.270;2023-09-08T13:59:27;101829.22;;;29.85;47.36
55656;BME280;41530;52.382;5.270;2023-09-08T14:01:59;101829.00;;;29.86;47.53
55656;BME280;41530;52.382;5.270;2023-09-08T14:04:47;101826.94;;;29.88;47.21
55656;BME280;41530;52.382;5.270;2023-09-08T14:07:19;101831.31;;;29.89;47.23
55656;BME280;41530;52.382;5.270;2023-09-08T14:09:49;101821.09;;;29.91;47.29
55656;BME280;41530;52.382;5.270;2023-09-08T14:12:21;101821.94;;;29.92;47.27
55656;BME280;41530;52.382;5.270;2023-09-08T14:14:48;101822.56;;;29.94;47.16
55656;BME280;41530;52.382;5.270;2023-09-08T14:17:15;101825.91;;;29.96;46.84
55656;BME280;41530;52.382;5.270;2023-09-08T14:19:41;101825.69;;;29.97;46.93
55656;BME280;41530;52.382;5.270;2023-09-08T14:22:08;101817.34;;;29.99;47.13